Time;durP1;ratioP1;P1;durP2;ratioP2;P2;SDS_P1;SDS_P2;PMS_P1;PMS_P2;Temp;Humidity;BMP_temperature;BMP_pressure;BME280_temperature;BME280_humidity;BME280_pressure;Samples;Min_cycle;Max_cycle;Signal;HPM_P1;HPM_P2
2024/02/10 00:02:38;;;;;;;349.60;111.67;;;;;12.20;94765.00;;;;5105922;28;20222;-70
2024/02/10 00:05:29;;;;;;;342.63;114.87;;;;;12.30;94760.00;;;;5091163;28;20215;-68
2024/02/10 00:08:22;;;;;;;354.47;115.40;;;;;12.20;94741.00;;;;5092285;28;20203;-66
2024/02/10 00:11:12;;;;;;;339.43;111.73;;;;;12.30;94735.00;;;;5098539;28;20249;-68
2024/02/10 00:14:01;;;;;;;343.17;112.77;;;;;12.50;94743.00;;;;5103866;28;20608;-66
2024/02/10 00:16:50;;;;;;;367.00;121.27;;;;;12.50;94741.00;;;;5101572;28;20219;-68
2024/02/10 00:19:46;;;;;;;353.03;111.80;;;;;12.50;94733.00;;;;5098147;28;20195;-68
2024/02/10 00:22:38;;;;;;;348.87;106.57;;;;;12.40;94744.00;;;;5105122;28;20593;-69
2024/02/10 00:25:27;;;;;;;353.87;108.83;;;;;12.10;94743.00;;;;5100439;28;20281;-68
2024/02/10 00:28:16;;;;;;;357.60;113.00;;;;;12.20;94732.00;;;;5102068;28;20222;-68
2024/02/10 00:31:07;;;;;;;349.00;105.63;;;;;12.40;94726.00;;;;5100181;28;20198;-69
2024/02/10 00:33:57;;;;;;;353.40;112.90;;;;;12.30;94731.00;;;;5101531;28;20694;-69
2024/02/10 00:36:48;;;;;;;364.57;115.67;;;;;12.40;94745.00;;;;5101386;28;20234;-69
2024/02/10 00:39:38;;;;;;;353.43;109.80;;;;;12.50;94735.00;;;;5105358;28;20199;-69
2024/02/10 00:42:28;;;;;;;353.43;110.10;;;;;12.10;94720.00;;;;5107790;28;20198;-68
2024/02/10 00:45:18;;;;;;;330.37;106.80;;;;;12.10;94730.00;;;;5103011;28;20206;-68
2024/02/10 00:48:07;;;;;;;355.57;112.03;;;;;12.30;94732.00;;;;5109959;28;20222;-69
2024/02/10 00:51:00;;;;;;;364.33;114.97;;;;;12.20;94715.00;;;;5094595;28;20203;-69
2024/02/10 00:53:53;;;;;;;359.20;112.27;;;;;12.50;94722.00;;;;5097106;28;20210;-69
2024/02/10 00:56:44;;;;;;;360.17;113.40;;;;;12.80;94718.00;;;;5099043;28;20230;-68
2024/02/10 00:59:33;;;;;;;470.90;197.43;;;;;13.00;94710.00;;;;5086035;28;20568;-69
2024/02/10 01:02:22;;;;;;;351.00;108.27;;;;;13.40;94722.00;;;;5082508;28;20584;-70
2024/02/10 01:05:11;;;;;;;440.00;181.53;;;;;13.40;94742.00;;;;5098421;27;20206;-69
2024/02/10 01:08:00;;;;;;;342.90;107.63;;;;;13.10;94725.00;;;;5098167;28;20226;-69
2024/02/10 01:10:51;;;;;;;364.93;117.40;;;;;13.10;94740.00;;;;5102686;28;20195;-70
2024/02/10 01:13:43;;;;;;;353.27;107.70;;;;;13.10;94741.00;;;;5106330;28;20688;-69
2024/02/10 01:16:33;;;;;;;357.43;111.80;;;;;13.40;94742.00;;;;5102469;28;20724;-69
2024/02/10 01:19:25;;;;;;;377.63;129.90;;;;;13.50;94736.00;;;;5093966;28;20956;-68
2024/02/10 01:22:15;;;;;;;352.57;109.67;;;;;13.20;94738.00;;;;5106278;28;20246;-69
2024/02/10 01:25:07;;;;;;;343.07;112.67;;;;;12.70;94735.00;;;;5104596;28;20194;-69
2024/02/10 01:27:56;;;;;;;360.70;114.23;;;;;13.10;94752.00;;;;5099521;28;20218;-69
2024/02/10 01:30:50;;;;;;;362.40;119.87;;;;;13.10;94748.00;;;;5094716;28;20205;-69
2024/02/10 01:33:41;;;;;;;346.73;109.33;;;;;12.70;94737.00;;;;5099233;28;20551;-69
2024/02/10 01:36:33;;;;;;;356.20;110.13;;;;;12.90;94748.00;;;;5103955;28;20695;-69
2024/02/10 01:39:22;;;;;;;358.63;112.20;;;;;12.90;94744.00;;;;5105262;28;20199;-69
2024/02/10 01:42:11;;;;;;;336.57;109.50;;;;;12.70;94737.00;;;;5105049;28;20211;-69
2024/02/10 01:45:00;;;;;;;351.70;108.93;;;;;12.50;94734.00;;;;5104156;28;20195;-70
2024/02/10 01:47:52;;;;;;;358.47;111.67;;;;;12.20;94734.00;;;;5107558;28;20218;-69
2024/02/10 01:54:51;;;;;;;357.53;109.07;;;;;12.50;94732.00;;;;5065062;28;20207;-69
2024/02/10 01:57:40;;;;;;;278.40;111.90;;;;;12.30;94726.00;;;;5102792;28;20700;-68
2024/02/10 02:00:30;;;;;;;352.23;107.43;;;;;12.90;94732.00;;;;5093453;27;20611;-69
2024/02/10 02:03:21;;;;;;;331.67;112.13;;;;;12.70;94727.00;;;;5100374;28;20200;-68
2024/02/10 02:06:10;;;;;;;350.53;112.73;;;;;12.50;94717.00;;;;5095204;28;20227;-69
2024/02/10 02:09:00;;;;;;;348.77;102.53;;;;;11.90;94725.00;;;;5099377;27;20211;-68
2024/02/10 02:11:51;;;;;;;223.07;109.33;;;;;11.20;94724.00;;;;5104039;28;20206;-68
2024/02/10 02:14:41;;;;;;;325.90;107.13;;;;;10.80;94721.00;;;;5103245;28;20199;-68
2024/02/10 02:17:37;;;;;;;349.97;102.03;;;;;11.00;94718.00;;;;5099647;28;20225;-70
2024/02/10 02:20:29;;;;;;;348.03;102.27;;;;;11.30;94722.00;;;;5106455;28;20328;-68
2024/02/10 02:23:20;;;;;;;342.77;97.53;;;;;11.00;94729.00;;;;5103910;28;20216;-68
2024/02/10 02:26:09;;;;;;;348.77;102.70;;;;;11.00;94706.00;;;;5097136;28;20218;-69
2024/02/10 02:28:58;;;;;;;354.40;105.90;;;;;11.00;94706.00;;;;5103786;28;20206;-68
2024/02/10 02:31:47;;;;;;;356.60;104.57;;;;;10.80;94701.00;;;;5103186;28;20198;-68
2024/02/10 02:34:36;;;;;;;347.43;100.37;;;;;10.40;94710.00;;;;5096696;28;20631;-69
2024/02/10 02:37:26;;;;;;;344.63;99.13;;;;;10.60;94711.00;;;;5107231;28;20229;-68
2024/02/10 02:40:18;;;;;;;344.33;101.00;;;;;10.80;94706.00;;;;5106783;28;20206;-69
2024/02/10 02:43:08;;;;;;;353.37;104.73;;;;;10.80;94709.00;;;;5104908;28;20727;-68
2024/02/10 02:45:58;;;;;;;352.37;102.90;;;;;10.60;94696.00;;;;5106060;28;20692;-69
2024/02/10 02:48:50;;;;;;;356.10;105.17;;;;;10.50;94707.00;;;;5096086;28;20203;-69
2024/02/10 02:51:39;;;;;;;310.60;99.87;;;;;10.40;94704.00;;;;5101174;27;20859;-68
2024/02/10 02:54:33;;;;;;;343.17;95.57;;;;;10.00;94701.00;;;;5093216;28;20207;-68
2024/02/10 02:57:28;;;;;;;340.93;95.60;;;;;10.00;94708.00;;;;5101397;28;20964;-69
2024/02/10 03:00:17;;;;;;;339.20;91.53;;;;;9.60;94704.00;;;;5100941;28;20199;-68
2024/02/10 03:03:07;;;;;;;343.70;93.63;;;;;9.00;94706.00;;;;5117637;22;20234;-72
2024/02/10 03:05:57;;;;;;;348.67;99.83;;;;;8.90;94699.00;;;;5103414;27;20195;-74
2024/02/10 03:08:46;;;;;;;357.17;100.87;;;;;8.20;94698.00;;;;5105509;27;20210;-72
2024/02/10 03:11:36;;;;;;;353.23;98.07;;;;;8.80;94693.00;;;;5085956;28;22528;-72
2024/02/10 03:14:28;;;;;;;340.30;88.50;;;;;8.80;94695.00;;;;5080664;28;20822;-71
2024/02/10 03:17:17;;;;;;;336.63;88.70;;;;;8.20;94694.00;;;;5081284;28;20467;-71
2024/02/10 03:20:09;;;;;;;335.33;84.87;;;;;7.40;94684.00;;;;5084286;28;20426;-72
2024/02/10 03:23:01;;;;;;;345.43;90.27;;;;;7.60;94693.00;;;;5084602;28;20518;-72
2024/02/10 03:25:56;;;;;;;340.50;88.73;;;;;7.90;94712.00;;;;5082637;28;20579;-70
2024/02/10 03:28:45;;;;;;;348.83;89.07;;;;;7.90;94714.00;;;;5082280;28;20437;-72
2024/02/10 03:31:36;;;;;;;318.90;81.93;;;;;8.00;94709.00;;;;5081594;28;20441;-74
2024/02/10 03:34:25;;;;;;;319.93;82.00;;;;;8.40;94706.00;;;;5073104;28;20479;-71
2024/02/10 03:37:15;;;;;;;333.87;87.77;;;;;8.60;94707.00;;;;5086225;28;20484;-73
2024/02/10 03:40:07;;;;;;;320.27;92.03;;;;;8.90;94697.00;;;;5075369;28;20855;-72
2024/02/10 03:42:56;;;;;;;345.10;95.00;;;;;8.10;94692.00;;;;5081718;28;20442;-73
2024/02/10 03:45:46;;;;;;;243.80;88.43;;;;;7.80;94685.00;;;;5084170;28;20409;-70
2024/02/10 03:48:39;;;;;;;295.90;84.30;;;;;8.60;94694.00;;;;5086426;28;20684;-73
2024/02/10 03:51:28;;;;;;;321.67;86.70;;;;;8.70;94691.00;;;;5077898;28;20478;-72
2024/02/10 03:54:17;;;;;;;108.93;69.47;;;;;8.60;94692.00;;;;5081333;28;20436;-70
2024/02/10 03:57:07;;;;;;;245.03;79.97;;;;;8.20;94691.00;;;;5079019;28;20219;-72
2024/02/10 03:59:56;;;;;;;341.77;88.93;;;;;8.50;94690.00;;;;5073694;28;20424;-70
2024/02/10 04:02:45;;;;;;;336.80;88.53;;;;;8.40;94691.00;;;;5083928;28;21053;-73
2024/02/10 04:05:38;;;;;;;319.97;86.00;;;;;7.80;94681.00;;;;5082407;28;20651;-71
2024/02/10 04:08:28;;;;;;;111.97;70.60;;;;;7.50;94678.00;;;;5088860;28;20414;-71
2024/02/10 04:11:18;;;;;;;258.23;84.17;;;;;6.90;94679.00;;;;5087193;28;20230;-72
2024/02/10 04:14:07;;;;;;;275.20;85.50;;;;;7.20;94677.00;;;;5082135;28;20428;-72
2024/02/10 04:16:56;;;;;;;146.93;71.90;;;;;7.70;94678.00;;;;5092345;28;20742;-71
2024/02/10 04:19:46;;;;;;;327.40;82.90;;;;;7.90;94669.00;;;;5082015;28;20429;-72
2024/02/10 04:22:38;;;;;;;141.73;73.97;;;;;7.90;94673.00;;;;5089324;28;20437;-72
2024/02/10 04:25:32;;;;;;;211.83;82.27;;;;;7.30;94669.00;;;;5080283;28;20277;-70
2024/02/10 04:28:22;;;;;;;336.10;85.80;;;;;7.60;94680.00;;;;5081628;28;20252;-72
2024/02/10 04:31:13;;;;;;;307.10;83.17;;;;;7.10;94675.00;;;;5086146;28;20575;-72
2024/02/10 04:34:02;;;;;;;120.67;67.23;;;;;6.60;94650.00;;;;5087922;28;20835;-71
2024/02/10 04:36:51;;;;;;;340.67;88.77;;;;;6.00;94665.00;;;;5080524;28;20203;-70
2024/02/10 04:39:42;;;;;;;129.53;69.70;;;;;6.90;94673.00;;;;5087575;28;20428;-70
2024/02/10 04:42:31;;;;;;;305.57;83.57;;;;;7.20;94695.00;;;;5084483;28;20219;-70
2024/02/10 04:45:25;;;;;;;333.60;84.50;;;;;7.30;94677.00;;;;5078699;28;20424;-71
2024/02/10 04:48:14;;;;;;;336.57;86.17;;;;;7.20;94665.00;;;;5079380;28;20789;-70
2024/02/10 04:51:03;;;;;;;332.90;82.67;;;;;6.90;94662.00;;;;5077728;28;20792;-71
2024/02/10 04:53:52;;;;;;;336.33;84.20;;;;;7.00;94664.00;;;;5082564;28;20934;-70
2024/02/10 04:56:43;;;;;;;333.17;86.27;;;;;7.00;94675.00;;;;5085289;28;20417;-72
2024/02/10 04:59:32;;;;;;;359.63;104.30;;;;;6.70;94675.00;;;;5077203;28;20430;-72
2024/02/10 05:02:23;;;;;;;331.00;80.27;;;;;7.20;94674.00;;;;5051958;28;20448;-71
2024/02/10 05:05:13;;;;;;;333.77;89.80;;;;;7.20;94684.00;;;;5085000;28;20430;-72
2024/02/10 05:08:02;;;;;;;330.90;83.10;;;;;6.80;94670.00;;;;5086117;28;20422;-74
2024/02/10 05:10:51;;;;;;;336.33;83.07;;;;;6.80;94675.00;;;;5085822;28;20809;-71
2024/02/10 05:13:42;;;;;;;327.87;79.20;;;;;6.60;94690.00;;;;5080533;28;20804;-72
2024/02/10 05:16:31;;;;;;;334.70;83.70;;;;;7.40;94682.00;;;;5084477;28;20426;-73
2024/02/10 05:19:20;;;;;;;336.13;84.23;;;;;7.30;94700.00;;;;5087984;28;20457;-72
2024/02/10 05:22:13;;;;;;;325.47;78.97;;;;;7.10;94700.00;;;;5088059;28;20441;-73
2024/02/10 05:25:07;;;;;;;156.87;74.00;;;;;6.90;94702.00;;;;5077849;28;20425;-73
2024/02/10 05:28:00;;;;;;;263.27;87.93;;;;;6.50;94692.00;;;;5082014;28;20195;-74
2024/02/10 05:30:54;;;;;;;254.90;114.47;;;;;5.90;94695.00;;;;5082710;28;20448;-73
2024/02/10 05:33:43;;;;;;;229.13;80.10;;;;;6.60;94710.00;;;;5070451;28;20336;-71
2024/02/10 05:36:34;;;;;;;321.13;80.07;;;;;6.80;94705.00;;;;5085941;28;20414;-75
2024/02/10 05:39:25;;;;;;;332.27;84.87;;;;;6.50;94706.00;;;;5077922;28;21054;-73
2024/02/10 05:42:14;;;;;;;455.80;183.07;;;;;6.50;94714.00;;;;5077602;28;20437;-71
2024/02/10 05:45:06;;;;;;;324.17;78.37;;;;;6.50;94704.00;;;;5072342;28;20430;-72
2024/02/10 05:47:58;;;;;;;360.00;107.57;;;;;6.30;94703.00;;;;5028949;28;20880;-72
2024/02/10 05:50:51;;;;;;;338.67;86.13;;;;;6.20;94706.00;;;;5083294;28;20433;-72
2024/02/10 05:53:42;;;;;;;446.67;163.80;;;;;6.70;94725.00;;;;5067879;28;20430;-73
2024/02/10 05:56:33;;;;;;;333.73;80.20;;;;;6.80;94732.00;;;;5076062;28;20537;-72
2024/02/10 05:59:22;;;;;;;328.53;80.50;;;;;6.50;94732.00;;;;5060537;28;20466;-71
2024/02/10 06:02:11;;;;;;;326.60;77.87;;;;;6.30;94740.00;;;;5067146;28;20461;-73
2024/02/10 06:05:02;;;;;;;333.00;82.13;;;;;6.10;94739.00;;;;5089408;28;20422;-71
2024/02/10 06:07:52;;;;;;;327.57;81.70;;;;;5.80;94747.00;;;;5078808;28;20425;-72
2024/02/10 06:10:42;;;;;;;322.67;79.30;;;;;5.60;94745.00;;;;5051140;28;20441;-73
2024/02/10 06:13:32;;;;;;;334.07;82.90;;;;;6.20;94748.00;;;;5080769;28;20418;-73
2024/02/10 06:16:24;;;;;;;472.80;188.13;;;;;6.40;94767.00;;;;5066240;28;20427;-71
2024/02/10 06:19:14;;;;;;;333.10;80.97;;;;;6.40;94768.00;;;;5068694;28;20553;-72
2024/02/10 06:22:06;;;;;;;324.50;75.77;;;;;6.00;94773.00;;;;5082734;28;20448;-74
2024/02/10 06:24:56;;;;;;;332.57;80.77;;;;;6.20;94776.00;;;;5080355;28;20922;-73
2024/02/10 06:27:45;;;;;;;323.20;77.27;;;;;6.40;94774.00;;;;5085949;28;20450;-74
2024/02/10 06:30:34;;;;;;;414.57;136.23;;;;;5.90;94776.00;;;;5071619;28;22707;-74
2024/02/10 06:33:28;;;;;;;331.07;80.77;;;;;5.70;94772.00;;;;5064830;28;20450;-73
2024/02/10 06:36:18;;;;;;;379.90;117.47;;;;;5.70;94783.00;;;;5024973;28;20480;-75
2024/02/10 06:39:09;;;;;;;452.33;173.63;;;;;6.30;94780.00;;;;5019156;28;20472;-73
2024/02/10 06:41:59;;;;;;;383.93;123.53;;;;;5.40;94779.00;;;;5019066;28;20497;-75
2024/02/10 06:44:48;;;;;;;367.43;111.27;;;;;4.90;94770.00;;;;5034447;28;20571;-72
2024/02/10 06:47:37;;;;;;;319.40;74.67;;;;;6.40;94783.00;;;;5080287;28;20957;-72
2024/02/10 06:50:27;;;;;;;303.53;74.87;;;;;5.70;94774.00;;;;5084622;28;20422;-74
2024/02/10 06:53:17;;;;;;;323.83;78.63;;;;;5.90;94788.00;;;;5077749;28;20427;-71
2024/02/10 06:56:08;;;;;;;318.00;73.37;;;;;6.40;94795.00;;;;5075129;28;20430;-72
2024/02/10 06:58:59;;;;;;;401.17;128.07;;;;;5.80;94796.00;;;;5013377;28;20481;-72
2024/02/10 07:01:52;;;;;;;465.20;182.07;;;;;6.50;94793.00;;;;5019607;28;20460;-71
2024/02/10 07:04:41;;;;;;;441.97;174.47;;;;;6.60;94800.00;;;;5019033;28;20436;-71
2024/02/10 07:07:30;;;;;;;407.73;190.23;;;;;6.30;94784.00;;;;5023503;28;20524;-71
2024/02/10 07:10:21;;;;;;;439.50;168.13;;;;;6.50;94810.00;;;;5013438;28;22082;-73
2024/02/10 07:13:12;;;;;;;366.73;187.10;;;;;6.40;94801.00;;;;5019800;28;20790;-72
2024/02/10 07:16:06;;;;;;;374.03;185.10;;;;;6.50;94810.00;;;;5017855;28;20472;-71
2024/02/10 07:18:55;;;;;;;307.60;88.63;;;;;5.80;94799.00;;;;5077911;28;20468;-74
2024/02/10 07:21:45;;;;;;;360.73;103.27;;;;;6.60;94812.00;;;;5077137;28;20448;-74
2024/02/10 07:24:36;;;;;;;323.70;76.67;;;;;6.50;94798.00;;;;5078567;28;20436;-74
2024/02/10 07:27:26;;;;;;;358.57;101.90;;;;;6.70;94802.00;;;;5083665;28;20450;-71
2024/02/10 07:30:17;;;;;;;330.70;81.70;;;;;7.30;94805.00;;;;5069204;28;20430;-74
2024/02/10 07:33:09;;;;;;;335.90;81.50;;;;;7.20;94811.00;;;;5079393;28;20433;-73
2024/02/10 07:36:00;;;;;;;338.53;85.20;;;;;6.90;94809.00;;;;5078444;28;20805;-74
2024/02/10 07:38:49;;;;;;;350.53;92.50;;;;;7.30;94806.00;;;;5081583;28;20469;-74
2024/02/10 07:41:39;;;;;;;332.17;80.87;;;;;7.60;94811.00;;;;5078908;28;20999;-74
2024/02/10 07:44:28;;;;;;;330.70;81.07;;;;;7.40;94816.00;;;;5079046;28;20454;-73
2024/02/10 07:47:19;;;;;;;330.43;82.53;;;;;7.70;94813.00;;;;5077457;28;20425;-74
2024/02/10 07:50:11;;;;;;;338.33;84.10;;;;;8.10;94813.00;;;;5078863;28;21115;-72
2024/02/10 07:53:00;;;;;;;336.93;82.23;;;;;8.10;94810.00;;;;5078830;28;20441;-74
2024/02/10 07:55:50;;;;;;;345.83;89.27;;;;;6.40;94812.00;;;;5080241;28;20949;-72
2024/02/10 07:58:40;;;;;;;348.80;91.23;;;;;6.30;94801.00;;;;5081154;28;20488;-72
2024/02/10 08:01:30;;;;;;;340.93;86.87;;;;;6.80;94799.00;;;;5077288;28;20465;-75
2024/02/10 08:04:21;;;;;;;328.43;78.27;;;;;6.70;94782.00;;;;5078905;28;20425;-73
2024/02/10 08:07:11;;;;;;;330.70;81.63;;;;;7.20;94790.00;;;;5079980;28;20449;-71
2024/02/10 08:10:01;;;;;;;345.00;91.97;;;;;7.60;94800.00;;;;5077217;28;20788;-72
2024/02/10 08:12:51;;;;;;;338.33;86.17;;;;;8.10;94818.00;;;;5079944;28;20606;-72
2024/02/10 08:15:40;;;;;;;336.43;83.20;;;;;8.60;94815.00;;;;5078317;28;20453;-73
2024/02/10 08:18:29;;;;;;;335.67;83.80;;;;;8.80;94816.00;;;;5078486;28;20437;-72
2024/02/10 08:21:22;;;;;;;343.33;88.70;;;;;9.10;94822.00;;;;5077244;28;20458;-70
2024/02/10 08:24:11;;;;;;;336.47;83.03;;;;;8.90;94800.00;;;;5075915;28;20472;-73
2024/02/10 08:27:00;;;;;;;351.83;95.33;;;;;9.40;94802.00;;;;5071168;28;20457;-72
2024/02/10 08:29:50;;;;;;;345.00;88.87;;;;;9.70;94802.00;;;;5075575;28;20438;-72
2024/02/10 08:32:39;;;;;;;346.37;93.20;;;;;9.10;94779.00;;;;5082423;28;20456;-72
2024/02/10 08:35:28;;;;;;;339.50;89.43;;;;;9.40;94775.00;;;;5076223;28;20446;-70
2024/02/10 08:38:21;;;;;;;351.73;94.77;;;;;9.30;94758.00;;;;5079059;28;20435;-73
2024/02/10 08:41:11;;;;;;;345.83;90.87;;;;;9.50;94773.00;;;;5073882;28;20490;-70
2024/02/10 08:44:00;;;;;;;337.03;87.20;;;;;9.40;94764.00;;;;5072044;28;20456;-74
2024/02/10 08:46:50;;;;;;;344.37;91.67;;;;;9.90;94764.00;;;;5078708;28;21158;-72
2024/02/10 08:49:39;;;;;;;343.87;90.77;;;;;10.40;94759.00;;;;5076089;28;20200;-73
2024/02/10 08:52:28;;;;;;;344.33;93.40;;;;;10.20;94756.00;;;;5076696;28;20604;-72
2024/02/10 08:55:18;;;;;;;341.07;90.00;;;;;10.30;94758.00;;;;5076888;28;20432;-72
2024/02/10 08:58:08;;;;;;;351.30;98.30;;;;;10.50;94775.00;;;;5077744;28;20241;-73
2024/02/10 09:00:57;;;;;;;351.97;100.97;;;;;10.60;94776.00;;;;5080256;28;20234;-72
2024/02/10 09:03:49;;;;;;;338.73;94.60;;;;;11.20;94778.00;;;;5077744;28;20305;-69
2024/02/10 09:06:39;;;;;;;345.40;95.83;;;;;11.20;94777.00;;;;5079001;28;20285;-69
2024/02/10 09:09:29;;;;;;;343.90;96.13;;;;;11.60;94777.00;;;;5082897;28;20661;-70
2024/02/10 09:12:20;;;;;;;349.63;98.40;;;;;11.90;94775.00;;;;5081258;28;20215;-69
2024/02/10 09:15:09;;;;;;;346.83;100.77;;;;;11.90;94772.00;;;;5083294;28;20584;-69
2024/02/10 09:17:59;;;;;;;352.43;101.87;;;;;12.00;94779.00;;;;5077146;28;20199;-70
2024/02/10 09:20:48;;;;;;;349.13;100.63;;;;;12.40;94769.00;;;;5076443;28;20238;-69
2024/02/10 09:23:42;;;;;;;353.47;99.90;;;;;12.20;94765.00;;;;5078502;28;20699;-69
2024/02/10 09:26:31;;;;;;;344.63;95.77;;;;;12.70;94758.00;;;;5074031;28;20207;-69
2024/02/10 09:29:22;;;;;;;351.50;103.93;;;;;12.80;94755.00;;;;5081571;28;20206;-68
2024/02/10 09:32:11;;;;;;;352.50;106.57;;;;;12.90;94743.00;;;;5080368;28;20223;-69
2024/02/10 09:35:03;;;;;;;366.97;116.87;;;;;12.80;94750.00;;;;5085085;28;20244;-69
2024/02/10 09:37:52;;;;;;;360.87;116.60;;;;;13.20;94743.00;;;;5076359;28;20658;-69
2024/02/10 09:40:42;;;;;;;353.87;113.70;;;;;13.20;94745.00;;;;5078000;28;20223;-69
2024/02/10 09:43:36;;;;;;;372.43;121.13;;;;;13.40;94748.00;;;;5073449;28;20207;-70
2024/02/10 09:46:29;;;;;;;350.10;104.60;;;;;13.60;94746.00;;;;5079477;28;20210;-69
2024/02/10 09:49:20;;;;;;;358.77;115.07;;;;;13.80;94739.00;;;;5079852;28;20260;-70
2024/02/10 09:52:09;;;;;;;358.30;113.47;;;;;14.00;94736.00;;;;5076767;28;20242;-69
2024/02/10 09:54:58;;;;;;;362.10;116.80;;;;;14.30;94743.00;;;;5078423;28;20200;-69
2024/02/10 09:57:48;;;;;;;352.30;114.10;;;;;14.50;94743.00;;;;5078411;28;20215;-69
2024/02/10 10:00:37;;;;;;;355.77;111.63;;;;;14.60;94738.00;;;;5076424;28;20219;-69
2024/02/10 10:03:28;;;;;;;369.43;125.43;;;;;15.30;94733.00;;;;5078852;28;20224;-67
2024/02/10 10:06:23;;;;;;;361.17;121.27;;;;;15.40;94736.00;;;;5080141;28;20234;-69
2024/02/10 10:09:15;;;;;;;373.13;130.30;;;;;15.40;94739.00;;;;5081416;28;20207;-69
2024/02/10 10:12:10;;;;;;;372.87;134.43;;;;;16.20;94749.00;;;;5084104;28;20234;-69
2024/02/10 10:14:59;;;;;;;375.17;136.70;;;;;15.90;94742.00;;;;5077908;28;20272;-70
2024/02/10 10:17:49;;;;;;;361.57;132.90;;;;;16.40;94727.00;;;;5076410;28;20208;-67
2024/02/10 10:20:40;;;;;;;373.37;141.73;;;;;15.90;94750.00;;;;5078320;28;20219;-68
2024/02/10 10:23:31;;;;;;;382.27;149.60;;;;;15.80;94715.00;;;;5075322;28;20219;-69
2024/02/10 10:26:20;;;;;;;369.27;141.70;;;;;17.10;94749.00;;;;5073366;28;20208;-68
2024/02/10 10:29:11;;;;;;;373.20;143.40;;;;;15.90;94737.00;;;;5072714;28;20202;-66
2024/02/10 10:32:01;;;;;;;380.37;151.87;;;;;15.70;94740.00;;;;5074060;28;20212;-68
2024/02/10 10:34:51;;;;;;;380.67;158.37;;;;;16.00;94724.00;;;;5074109;28;20707;-69
2024/02/10 10:37:41;;;;;;;370.73;147.90;;;;;16.80;94744.00;;;;5075993;28;20200;-68
2024/02/10 10:40:30;;;;;;;375.60;157.83;;;;;16.60;94736.00;;;;5070723;28;20597;-64
2024/02/10 10:43:21;;;;;;;371.47;146.97;;;;;16.00;94737.00;;;;5077985;28;20196;-66
2024/02/10 10:46:12;;;;;;;378.77;154.30;;;;;16.60;94741.00;;;;5074540;28;20214;-67
2024/02/10 10:49:01;;;;;;;379.80;156.00;;;;;16.10;94737.00;;;;5078771;28;20208;-67
2024/02/10 10:51:54;;;;;;;373.43;150.63;;;;;15.40;94741.00;;;;5077186;28;20230;-65
2024/02/10 10:54:45;;;;;;;369.20;143.23;;;;;16.30;94752.00;;;;5076106;28;20200;-68
2024/02/10 10:57:34;;;;;;;373.93;155.57;;;;;16.30;94745.00;;;;5075680;28;20222;-66
2024/02/10 11:00:25;;;;;;;384.67;157.93;;;;;16.50;94749.00;;;;5074327;28;20215;-65
2024/02/10 11:03:16;;;;;;;378.13;151.93;;;;;16.80;94753.00;;;;5074414;28;20218;-66
2024/02/10 11:06:12;;;;;;;375.10;152.90;;;;;15.60;94742.00;;;;5074848;28;20606;-68
2024/02/10 11:09:05;;;;;;;374.87;150.80;;;;;15.60;94720.00;;;;5082239;28;20211;-66
2024/02/10 11:11:57;;;;;;;388.33;162.70;;;;;15.60;94721.00;;;;5078307;28;20220;-64
2024/02/10 11:14:53;;;;;;;384.73;151.40;;;;;15.40;94723.00;;;;5080803;28;20214;-64
2024/02/10 11:17:42;;;;;;;375.57;144.57;;;;;15.70;94717.00;;;;5076988;28;20196;-68
2024/02/10 11:20:38;;;;;;;373.33;144.13;;;;;15.80;94718.00;;;;5079368;28;20223;-65
2024/02/10 11:23:30;;;;;;;372.73;146.90;;;;;16.20;94722.00;;;;5074237;28;20246;-66
2024/02/10 11:26:19;;;;;;;371.73;138.67;;;;;15.70;94719.00;;;;5080897;28;20208;-65
2024/02/10 11:29:13;;;;;;;366.70;138.23;;;;;16.10;94714.00;;;;5077004;28;20755;-63
2024/02/10 11:32:05;;;;;;;377.73;142.10;;;;;15.50;94711.00;;;;5073946;28;20239;-66
2024/02/10 11:34:54;;;;;;;374.27;147.70;;;;;16.00;94704.00;;;;5072324;28;20212;-66
2024/02/10 11:37:43;;;;;;;367.50;133.50;;;;;15.90;94708.00;;;;5075916;28;20702;-66
2024/02/10 11:40:33;;;;;;;361.33;133.00;;;;;15.50;94717.00;;;;5069666;28;20255;-68
2024/02/10 11:43:23;;;;;;;373.33;143.77;;;;;16.10;94716.00;;;;5073951;28;20208;-69
2024/02/10 11:46:13;;;;;;;368.53;140.33;;;;;16.40;94703.00;;;;5069467;28;20203;-67
2024/02/10 11:49:03;;;;;;;380.00;148.17;;;;;17.00;94705.00;;;;5072560;28;20251;-66
2024/02/10 11:51:56;;;;;;;373.57;147.17;;;;;17.60;94708.00;;;;5076055;28;20290;-68
2024/02/10 11:54:45;;;;;;;371.57;149.37;;;;;17.90;94700.00;;;;5080429;28;20684;-68
2024/02/10 11:57:34;;;;;;;364.23;147.20;;;;;17.20;94700.00;;;;5078508;28;20207;-68
2024/02/10 12:00:23;;;;;;;369.47;146.07;;;;;17.50;94682.00;;;;5077544;28;20214;-68
2024/02/10 12:03:19;;;;;;;369.10;143.93;;;;;17.60;94689.00;;;;5070179;28;20200;-67
2024/02/10 12:06:09;;;;;;;372.30;164.60;;;;;17.80;94681.00;;;;5079688;28;20211;-68
2024/02/10 12:08:59;;;;;;;380.03;161.50;;;;;17.70;94674.00;;;;5073215;28;20214;-67
2024/02/10 12:11:56;;;;;;;368.27;155.63;;;;;17.60;94677.00;;;;5079774;28;20238;-68
2024/02/10 12:14:47;;;;;;;371.00;161.50;;;;;18.10;94678.00;;;;5072381;28;20619;-68
2024/02/10 12:17:37;;;;;;;369.23;159.10;;;;;18.30;94677.00;;;;5077297;28;20672;-68
2024/02/10 12:20:29;;;;;;;366.43;156.93;;;;;17.00;94665.00;;;;5081575;28;20204;-67
2024/02/10 12:23:18;;;;;;;370.97;164.03;;;;;17.00;94675.00;;;;5085965;28;20207;-68
2024/02/10 12:26:08;;;;;;;384.00;167.63;;;;;17.10;94672.00;;;;5079901;28;20246;-67
2024/02/10 12:28:57;;;;;;;379.07;162.50;;;;;17.20;94683.00;;;;5076957;28;20214;-66
2024/02/10 12:31:49;;;;;;;371.47;161.17;;;;;17.70;94679.00;;;;5083206;28;20215;-67
2024/02/10 12:34:39;;;;;;;375.80;161.30;;;;;17.50;94688.00;;;;5079869;28;20264;-66
2024/02/10 12:37:29;;;;;;;376.07;164.70;;;;;17.50;94681.00;;;;5076241;28;20226;-66
2024/02/10 12:40:21;;;;;;;379.43;169.43;;;;;17.40;94683.00;;;;5075137;28;20199;-66
2024/02/10 12:43:13;;;;;;;384.93;167.37;;;;;17.20;94678.00;;;;5079967;28;20208;-65
2024/02/10 12:46:03;;;;;;;382.10;171.63;;;;;17.30;94682.00;;;;5082604;28;20218;-66
2024/02/10 12:48:52;;;;;;;376.30;161.10;;;;;17.00;94670.00;;;;5077230;28;20202;-66
2024/02/10 12:51:41;;;;;;;372.70;155.30;;;;;17.10;94674.00;;;;5084396;28;20223;-64
2024/02/10 12:54:32;;;;;;;374.53;164.97;;;;;17.20;94662.00;;;;5078509;28;20204;-65
2024/02/10 12:57:22;;;;;;;365.57;147.87;;;;;17.30;94652.00;;;;5080354;28;20207;-65
2024/02/10 13:00:19;;;;;;;366.67;152.80;;;;;17.60;94647.00;;;;5079491;28;20208;-66
2024/02/10 13:03:09;;;;;;;387.77;167.17;;;;;17.50;94650.00;;;;5084053;28;20216;-66
2024/02/10 13:06:00;;;;;;;380.07;154.70;;;;;17.40;94652.00;;;;5075226;28;20223;-66
2024/02/10 13:08:49;;;;;;;377.97;157.33;;;;;17.20;94657.00;;;;5073058;28;20437;-65
2024/02/10 13:11:40;;;;;;;362.80;150.60;;;;;17.10;94644.00;;;;5073995;28;20216;-66
2024/02/10 13:14:29;;;;;;;361.90;152.53;;;;;17.00;94640.00;;;;5082755;28;20241;-66
2024/02/10 13:17:18;;;;;;;365.97;146.10;;;;;17.30;94636.00;;;;5083500;28;20221;-64
2024/02/10 13:20:08;;;;;;;389.53;168.57;;;;;17.60;94633.00;;;;5078149;28;20290;-65
2024/02/10 13:22:58;;;;;;;370.40;153.43;;;;;17.60;94635.00;;;;5078569;28;20321;-65
2024/02/10 13:25:49;;;;;;;370.03;157.37;;;;;17.70;94639.00;;;;5083484;28;20207;-66
2024/02/10 13:28:41;;;;;;;371.73;160.30;;;;;17.90;94633.00;;;;5076658;28;20276;-68
2024/02/10 13:31:30;;;;;;;368.40;152.60;;;;;17.90;94636.00;;;;5081703;28;20228;-68
2024/02/10 13:34:19;;;;;;;370.63;157.77;;;;;17.90;94641.00;;;;5085821;28;20203;-68
2024/02/10 14:02:06;;;;;;;364.33;148.23;;;;;17.30;94646.00;;;;5079819;28;20336;-69
2024/02/10 14:04:53;;;;;;;367.47;151.40;;;;;17.20;94637.00;;;;5086005;28;20235;-71
2024/02/10 14:10:55;;;;;;;364.10;144.97;;;;;17.00;94633.00;;;;5062253;28;20211;-71
2024/02/10 14:13:49;;;;;;;366.07;145.23;;;;;17.00;94633.00;;;;5089054;28;20230;-72